Time,TemperatureF,DewpointF,PressureIn,WindDirection,WindDirectionDegrees,WindSpeedMPH,WindSpeedGustMPH,Humidity,HourlyPrecipIn,Conditions,Clouds,dailyrainin,SolarRadiationWatts/m^2,SoftwareType,DateUTC
2013-07-11 00:01:00,62.0,35.0,-100.00,WNW,287,2.0,4.0,37,0.00,,,0.00,0.000000,,2013-07-11 07:01:00,
2013-07-11 00:12:00,62.0,35.0,-100.00,WNW,287,2.0,4.0,37,0.00,,,0.00,0.000000,,2013-07-11 07:12:00,
2013-07-11 00:45:00,62.0,44.0,-100.00,ESE,117,2.0,7.0,52,0.00,,,-99.99,0.000000,,2013-07-11 07:45:00,
2013-07-11 00:53:00,62.0,44.0,-100.00,ESE,117,2.0,7.0,52,0.00,,,-99.99,0.000000,,2013-07-11 07:53:00,
2013-07-11 01:02:00,62.0,44.0,-100.00,ESE,117,2.0,7.0,52,0.00,,,-99.99,0.000000,,2013-07-11 08:02:00,
2013-07-11 01:11:00,62.0,44.0,-100.00,ESE,117,2.0,7.0,52,0.00,,,-99.99,0.000000,,2013-07-11 08:11:00,
2013-07-11 01:43:00,57.0,43.0,-100.00,SSW,205,2.0,5.0,59,0.00,,,0.00,0.000000,,2013-07-11 08:43:00,
2013-07-11 01:53:00,57.0,43.0,-100.00,SSW,205,2.0,5.0,59,0.00,,,0.00,0.000000,,2013-07-11 08:53:00,
2013-07-11 02:02:00,57.0,43.0,-100.00,SSW,205,2.0,5.0,59,0.00,,,0.00,0.000000,,2013-07-11 09:02:00,
2013-07-11 02:12:00,57.0,43.0,-100.00,SSW,205,2.0,5.0,59,0.00,,,0.00,0.000000,,2013-07-11 09:12:00,
2013-07-11 02:43:00,54.0,43.0,-100.00,SSE,165,3.0,7.0,65,0.00,,,0.00,0.000000,,2013-07-11 09:43:00,
2013-07-11 02:53:00,54.0,43.0,-100.00,SSE,165,3.0,7.0,65,0.00,,,0.00,0.000000,,2013-07-11 09:53:00,
2013-07-11 03:01:00,54.0,43.0,-100.00,SSE,165,3.0,7.0,65,0.00,,,0.00,0.000000,,2013-07-11 10:01:00,
2013-07-11 03:11:00,54.0,43.0,-100.00,SSE,165,3.0,7.0,65,0.00,,,0.00,0.000000,,2013-07-11 10:11:00,
2013-07-11 03:43:00,51.0,41.0,-100.00,WSW,240,3.0,5.0,68,0.00,,,0.00,0.000000,,2013-07-11 10:43:00,
2013-07-11 03:52:00,51.0,41.0,-100.00,WSW,240,3.0,5.0,68,0.00,,,0.00,0.000000,,2013-07-11 10:52:00,
2013-07-11 04:02:00,51.0,41.0,-100.00,WSW,240,3.0,5.0,68,0.00,,,0.00,0.000000,,2013-07-11 11:02:00,
2013-07-11 04:12:00,51.0,41.0,-100.00,WSW,240,3.0,5.0,68,0.00,,,0.00,0.000000,,2013-07-11 11:12:00,
2013-07-11 04:43:00,49.0,40.0,-100.00,WSW,248,4.0,7.0,70,0.00,,,-99.99,0.000000,,2013-07-11 11:43:00,
2013-07-11 04:53:00,49.0,40.0,-100.00,WSW,248,4.0,7.0,70,0.00,,,-99.99,0.000000,,2013-07-11 11:53:00,
2013-07-11 05:01:00,49.0,40.0,-100.00,WSW,248,4.0,7.0,70,0.00,,,-99.99,0.000000,,2013-07-11 12:01:00,
2013-07-11 05:12:00,49.0,40.0,-100.00,WSW,248,4.0,7.0,70,0.00,,,-99.99,0.000000,,2013-07-11 12:12:00,
2013-07-11 05:43:00,47.0,40.0,-100.00,WSW,242,4.0,6.0,77,0.00,,,-99.99,0.000000,,2013-07-11 12:43:00,
2013-07-11 05:56:00,47.0,40.0,-100.00,WSW,242,4.0,6.0,77,0.00,,,-99.99,0.000000,,2013-07-11 12:56:00,
2013-07-11 06:01:00,47.0,40.0,-100.00,WSW,242,4.0,6.0,77,0.00,,,-99.99,0.000000,,2013-07-11 13:01:00,
2013-07-11 06:11:00,47.0,40.0,-100.00,WSW,242,4.0,6.0,77,0.00,,,-99.99,0.000000,,2013-07-11 13:11:00,
2013-07-11 06:54:00,48.0,42.0,-100.00,SW,226,2.0,6.0,79,0.00,,,-99.99,8.000000,,2013-07-11 13:54:00,
2013-07-11 07:03:00,48.0,42.0,-100.00,SW,226,2.0,6.0,79,0.00,,,-99.99,8.000000,,2013-07-11 14:03:00,
2013-07-11 07:12:00,48.0,42.0,-100.00,SW,226,2.0,6.0,79,0.00,,,-99.99,8.000000,,2013-07-11 14:12:00,
2013-07-11 07:36:00,56.0,45.0,-100.00,SSW,192,3.0,6.0,66,0.00,,,0.00,113.000000,,2013-07-11 14:36:00,
2013-07-11 07:46:00,56.0,45.0,-100.00,SSW,192,3.0,6.0,66,0.00,,,0.00,113.000000,,2013-07-11 14:46:00,
2013-07-11 07:54:00,56.0,45.0,-100.00,SSW,192,3.0,6.0,66,0.00,,,0.00,113.000000,,2013-07-11 14:54:00,
2013-07-11 08:12:00,56.0,45.0,-100.00,SSW,192,3.0,6.0,66,0.00,,,0.00,113.000000,,2013-07-11 15:12:00,
2013-07-11 08:48:00,63.0,45.0,-100.00,South,185,4.0,8.0,52,0.00,,,0.00,236.000000,,2013-07-11 15:48:00,
2013-07-11 08:56:00,63.0,45.0,-100.00,South,185,4.0,8.0,52,0.00,,,0.00,236.000000,,2013-07-11 15:56:00,
2013-07-11 09:03:00,63.0,45.0,-100.00,South,185,4.0,8.0,52,0.00,,,0.00,236.000000,,2013-07-11 16:03:00,
2013-07-11 09:12:00,63.0,45.0,-100.00,South,185,4.0,8.0,52,0.00,,,0.00,236.000000,,2013-07-11 16:12:00,
2013-07-11 09:49:00,68.0,45.0,-100.00,SE,127,3.0,7.0,44,0.00,,,0.00,414.000000,,2013-07-11 16:49:00,
2013-07-11 09:56:00,68.0,45.0,-100.00,SE,127,3.0,7.0,44,0.00,,,0.00,414.000000,,2013-07-11 16:56:00,
2013-07-11 10:02:00,68.0,45.0,-100.00,SE,127,3.0,7.0,44,0.00,,,0.00,414.000000,,2013-07-11 17:02:00,
2013-07-11 10:13:00,68.0,45.0,-100.00,SE,127,3.0,7.0,44,0.00,,,0.00,414.000000,,2013-07-11 17:13:00,
2013-07-11 10:39:00,71.0,45.0,-100.00,ENE,60,5.0,8.0,39,0.00,,,0.00,432.000000,,2013-07-11 17:39:00,
2013-07-11 10:48:00,71.0,45.0,-100.00,ENE,60,5.0,8.0,39,0.00,,,0.00,432.000000,,2013-07-11 17:48:00,
2013-07-11 10:54:00,71.0,45.0,-100.00,ENE,60,5.0,8.0,39,0.00,,,0.00,432.000000,,2013-07-11 17:54:00,
2013-07-11 11:03:00,71.0,45.0,-100.00,ENE,60,5.0,8.0,39,0.00,,,0.00,432.000000,,2013-07-11 18:03:00,
2013-07-11 11:12:00,71.0,45.0,-100.00,ENE,60,5.0,8.0,39,0.00,,,0.00,432.000000,,2013-07-11 18:12:00,
2013-07-11 11:48:00,75.0,41.0,-100.00,East,99,5.0,10.0,30,0.00,,,0.00,350.000000,,2013-07-11 18:48:00,
2013-07-11 11:56:00,75.0,41.0,-100.00,East,99,5.0,10.0,30,0.00,,,0.00,350.000000,,2013-07-11 18:56:00,
2013-07-11 12:46:00,76.0,41.0,-100.00,North,9,6.0,12.0,29,0.00,,,0.00,77.000000,,2013-07-11 19:46:00,
2013-07-11 12:57:00,76.0,41.0,-100.00,North,9,6.0,12.0,29,0.00,,,0.00,77.000000,,2013-07-11 19:57:00,
2013-07-11 13:03:00,76.0,41.0,-100.00,North,9,6.0,12.0,29,0.00,,,0.00,77.000000,,2013-07-11 20:03:00,
2013-07-11 13:12:00,76.0,41.0,-100.00,North,9,6.0,12.0,29,0.00,,,0.00,77.000000,,2013-07-11 20:12:00,
2013-07-11 13:49:00,77.0,39.0,-100.00,NNW,332,8.0,15.0,26,0.00,,,0.00,192.000000,,2013-07-11 20:49:00,
2013-07-11 14:02:00,77.0,39.0,-100.00,NNW,332,8.0,15.0,26,0.00,,,0.00,192.000000,,2013-07-11 21:02:00,
2013-07-11 14:12:00,77.0,39.0,-100.00,NNW,332,8.0,15.0,26,0.00,,,0.00,192.000000,,2013-07-11 21:12:00,
2013-07-11 14:45:00,80.0,41.0,-100.00,North,359,7.0,16.0,25,0.00,,,0.00,1044.000000,,2013-07-11 21:45:00,
2013-07-11 14:57:00,80.0,41.0,-100.00,North,359,7.0,16.0,25,0.00,,,0.00,1044.000000,,2013-07-11 21:57:00,
2013-07-11 15:12:00,80.0,41.0,-100.00,North,359,7.0,16.0,25,0.00,,,0.00,1044.000000,,2013-07-11 22:12:00,
2013-07-11 15:49:00,80.0,41.0,-100.00,North,351,9.0,19.0,25,0.00,,,0.00,983.000000,,2013-07-11 22:49:00,
2013-07-11 15:54:00,80.0,41.0,-100.00,North,351,9.0,19.0,25,0.00,,,0.00,983.000000,,2013-07-11 22:54:00,
2013-07-11 16:02:00,80.0,41.0,-100.00,North,351,9.0,19.0,25,0.00,,,0.00,983.000000,,2013-07-11 23:02:00,
2013-07-11 16:11:00,80.0,41.0,-100.00,North,351,9.0,19.0,25,0.00,,,0.00,983.000000,,2013-07-11 23:11:00,
2013-07-11 16:47:00,81.0,41.0,-100.00,NNW,338,8.0,17.0,24,0.00,,,0.00,880.000000,,2013-07-11 23:47:00,
2013-07-11 16:57:00,81.0,41.0,-100.00,NNW,338,8.0,17.0,24,0.00,,,0.00,880.000000,,2013-07-11 23:57:00,
2013-07-11 17:03:00,81.0,41.0,-100.00,NNW,338,8.0,17.0,24,0.00,,,0.00,880.000000,,2013-07-12 00:03:00,
2013-07-11 17:12:00,81.0,41.0,-100.00,NNW,338,8.0,17.0,24,0.00,,,0.00,880.000000,,2013-07-12 00:12:00,
2013-07-11 17:46:00,78.0,41.0,-100.00,NNE,12,11.0,20.0,27,0.00,,,0.00,732.000000,,2013-07-12 00:46:00,
2013-07-11 17:57:00,78.0,41.0,-100.00,NNE,12,11.0,20.0,27,0.00,,,0.00,732.000000,,2013-07-12 00:57:00,
2013-07-11 18:02:00,78.0,41.0,-100.00,NNE,12,11.0,20.0,27,0.00,,,0.00,732.000000,,2013-07-12 01:02:00,
2013-07-11 18:12:00,78.0,41.0,-100.00,NNE,12,11.0,20.0,27,0.00,,,0.00,732.000000,,2013-07-12 01:12:00,
2013-07-11 18:47:00,76.0,41.0,-100.00,North,359,10.0,20.0,29,0.00,,,0.00,544.000000,,2013-07-12 01:47:00,
2013-07-11 18:55:00,76.0,41.0,-100.00,North,359,10.0,20.0,29,0.00,,,0.00,544.000000,,2013-07-12 01:55:00,
2013-07-11 19:02:00,76.0,41.0,-100.00,North,359,10.0,20.0,29,0.00,,,0.00,544.000000,,2013-07-12 02:02:00,
2013-07-11 19:12:00,76.0,41.0,-100.00,North,359,10.0,20.0,29,0.00,,,0.00,544.000000,,2013-07-12 02:12:00,
2013-07-11 19:36:00,73.0,41.0,-100.00,North,353,10.0,20.0,31,0.00,,,0.00,356.000000,,2013-07-12 02:36:00,
2013-07-11 19:45:00,73.0,41.0,-100.00,North,353,10.0,20.0,31,0.00,,,0.00,356.000000,,2013-07-12 02:45:00,
2013-07-11 19:55:00,73.0,41.0,-100.00,North,353,10.0,20.0,31,0.00,,,0.00,356.000000,,2013-07-12 02:55:00,
2013-07-11 20:02:00,73.0,41.0,-100.00,North,353,10.0,20.0,31,0.00,,,0.00,356.000000,,2013-07-12 03:02:00,
2013-07-11 20:46:00,69.0,41.0,-100.00,North,11,7.0,14.0,36,0.00,,,0.00,171.000000,,2013-07-12 03:46:00,
2013-07-11 20:55:00,69.0,41.0,-100.00,North,11,7.0,14.0,36,0.00,,,0.00,171.000000,,2013-07-12 03:55:00,
2013-07-11 21:01:00,69.0,41.0,-100.00,North,11,7.0,14.0,36,0.00,,,0.00,171.000000,,2013-07-12 04:01:00,
2013-07-11 21:11:00,69.0,41.0,-100.00,North,11,7.0,14.0,36,0.00,,,0.00,171.000000,,2013-07-12 04:11:00,
2013-07-11 21:43:00,63.0,42.0,-100.00,NNW,335,5.0,12.0,47,0.00,,,0.00,19.000000,,2013-07-12 04:43:00,
2013-07-11 21:53:00,63.0,42.0,-100.00,NNW,335,5.0,12.0,47,0.00,,,0.00,19.000000,,2013-07-12 04:53:00,
2013-07-11 22:02:00,63.0,42.0,-100.00,NNW,335,5.0,12.0,47,0.00,,,0.00,19.000000,,2013-07-12 05:02:00,
2013-07-11 22:11:00,63.0,42.0,-100.00,NNW,335,5.0,12.0,47,0.00,,,0.00,19.000000,,2013-07-12 05:11:00,
2013-07-11 22:32:00,57.0,42.0,-100.00,ENE,59,1.0,7.0,58,0.00,,,0.00,0.000000,,2013-07-12 05:32:00,
2013-07-11 22:43:00,57.0,42.0,-100.00,ENE,59,1.0,7.0,58,0.00,,,0.00,0.000000,,2013-07-12 05:43:00,
2013-07-11 22:53:00,57.0,42.0,-100.00,ENE,59,1.0,7.0,58,0.00,,,0.00,0.000000,,2013-07-12 05:53:00,
2013-07-11 23:01:00,57.0,42.0,-100.00,ENE,59,1.0,7.0,58,0.00,,,0.00,0.000000,,2013-07-12 06:01:00,
2013-07-11 23:11:00,57.0,42.0,-100.00,ENE,59,1.0,7.0,58,0.00,,,0.00,0.000000,,2013-07-12 06:11:00,
2013-07-11 23:42:00,52.0,41.0,-100.00,WSW,249,3.0,5.0,66,0.00,,,0.00,0.000000,,2013-07-12 06:42:00,
2013-07-11 23:52:00,52.0,41.0,-100.00,WSW,249,3.0,5.0,66,0.00,,,0.00,0.000000,,2013-07-12 06:52:00,